sensor_id;sensor_type;location;lat;lon;timestamp;pressure;altitude;pressure_sealevel;temperature;humidity
37860;BME280;23698;52.014;5.190;2022-07-23T00:00:00;101886.91;;;15.14;100.00
37860;BME280;23698;52.014;5.190;2022-07-23T00:03:10;101890.06;;;15.17;100.00
37860;BME280;23698;52.014;5.190;2022-07-23T00:06:16;101882.19;;;15.07;100.00
37860;BME280;23698;52.014;5.190;2022-07-23T00:09:21;101890.59;;;15.06;100.00
37860;BME280;23698;52.014;5.190;2022-07-23T00:12:25;101898.78;;;15.06;100.00
37860;BME280;23698;52.014;5.190;2022-07-23T00:15:31;101889.31;;;15.02;100.00
37860;BME280;23698;52.014;5.190;2022-07-23T00:18:37;101888.06;;;15.04;100.00
37860;BME280;23698;52.014;5.190;2022-07-23T00:21:42;101881.56;;;15.05;100.00
37860;BME280;23698;52.014;5.190;2022-07-23T00:24:48;101888.91;;;15.05;100.00
37860;BME280;23698;52.014;5.190;2022-07-23T00:28:14;101886.75;;;15.00;100.00
37860;BME280;23698;52.014;5.190;2022-07-23T00:31:19;101884.75;;;15.09;100.00
37860;BME280;23698;52.014;5.190;2022-07-23T00:34:26;101882.53;;;15.19;100.00
37860;BME280;23698;52.014;5.190;2022-07-23T00:37:32;101878.31;;;15.17;100.00
37860;BME280;23698;52.014;5.190;2022-07-23T00:40:38;101883.91;;;15.08;100.00
37860;BME280;23698;52.014;5.190;2022-07-23T00:43:44;101878.84;;;15.05;100.00
37860;BME280;23698;52.014;5.190;2022-07-23T00:46:51;101879.03;;;15.04;100.00
37860;BME280;23698;52.014;5.190;2022-07-23T00:49:59;101878.84;;;15.05;100.00
37860;BME280;23698;52.014;5.190;2022-07-23T00:53:04;101869.75;;;14.98;100.00
37860;BME280;23698;52.014;5.190;2022-07-23T00:56:10;101873.91;;;14.94;100.00
37860;BME280;23698;52.014;5.190;2022-07-23T00:59:15;101866.94;;;14.91;100.00
37860;BME280;23698;52.014;5.190;2022-07-23T01:02:20;101861.66;;;14.90;100.00
37860;BME280;23698;52.014;5.190;2022-07-23T01:05:27;101858.09;;;14.89;100.00
37860;BME280;23698;52.014;5.190;2022-07-23T01:08:32;101860.84;;;14.89;100.00
37860;BME280;23698;52.014;5.190;2022-07-23T01:11:38;101857.28;;;14.89;100.00
37860;BME280;23698;52.014;5.190;2022-07-23T01:14:53;101852.00;;;14.87;100.00
37860;BME280;23698;52.014;5.190;2022-07-23T01:18:00;101863.50;;;14.83;100.00
37860;BME280;23698;52.014;5.190;2022-07-23T01:21:08;101847.91;;;14.77;100.00
37860;BME280;23698;52.014;5.190;2022-07-23T01:24:18;101840.50;;;14.70;100.00
37860;BME280;23698;52.014;5.190;2022-07-23T01:27:32;101837.13;;;14.68;100.00
37860;BME280;23698;52.014;5.190;2022-07-23T01:30:39;101838.06;;;14.61;100.00
37860;BME280;23698;52.014;5.190;2022-07-23T01:33:46;101847.66;;;14.57;100.00
37860;BME280;23698;52.014;5.190;2022-07-23T01:36:51;101846.66;;;14.58;100.00
37860;BME280;23698;52.014;5.190;2022-07-23T01:39:58;101853.13;;;14.57;100.00
37860;BME280;23698;52.014;5.190;2022-07-23T01:43:06;101853.97;;;14.57;100.00
37860;BME280;23698;52.014;5.190;2022-07-23T01:46:13;101847.59;;;14.50;100.00
37860;BME280;23698;52.014;5.190;2022-07-23T01:49:24;101849.41;;;14.43;100.00
37860;BME280;23698;52.014;5.190;2022-07-23T01:52:55;101847.56;;;14.28;100.00
37860;BME280;23698;52.014;5.190;2022-07-23T01:56:02;101854.47;;;14.24;100.00
37860;BME280;23698;52.014;5.190;2022-07-23T01:59:09;101863.66;;;14.23;100.00
37860;BME280;23698;52.014;5.190;2022-07-23T02:02:14;101848.28;;;14.15;100.00
37860;BME280;23698;52.014;5.190;2022-07-23T02:05:20;101847.03;;;14.18;100.00
37860;BME280;23698;52.014;5.190;2022-07-23T02:08:25;101856.00;;;14.12;100.00
37860;BME280;23698;52.014;5.190;2022-07-23T02:11:32;101859.56;;;14.12;100.00
37860;BME280;23698;52.014;5.190;2022-07-23T02:14:38;101855.03;;;14.20;100.00
37860;BME280;23698;52.014;5.190;2022-07-23T02:17:43;101859.19;;;14.15;100.00
37860;BME280;23698;52.014;5.190;2022-07-23T02:20:48;101853.69;;;14.30;100.00
37860;BME280;23698;52.014;5.190;2022-07-23T02:23:53;101855.56;;;14.30;100.00
37860;BME280;23698;52.014;5.190;2022-07-23T02:27:00;101847.31;;;14.23;100.00
37860;BME280;23698;52.014;5.190;2022-07-23T02:30:06;101841.94;;;14.15;100.00
37860;BME280;23698;52.014;5.190;2022-07-23T02:33:11;101853.72;;;14.15;100.00
37860;BME280;23698;52.014;5.190;2022-07-23T02:36:17;101850.78;;;14.17;100.00
37860;BME280;23698;52.014;5.190;2022-07-23T02:39:23;101856.63;;;14.14;100.00
37860;BME280;23698;52.014;5.190;2022-07-23T02:42:30;101858.44;;;14.07;100.00
37860;BME280;23698;52.014;5.190;2022-07-23T02:45:35;101853.19;;;14.05;100.00
37860;BME280;23698;52.014;5.190;2022-07-23T02:48:41;101863.03;;;14.06;100.00
37860;BME280;23698;52.014;5.190;2022-07-23T02:51:46;101864.91;;;14.06;100.00
37860;BME280;23698;52.014;5.190;2022-07-23T02:54:52;101862.00;;;13.92;100.00
37860;BME280;23698;52.014;5.190;2022-07-23T02:57:58;101864.63;;;14.01;100.00
37860;BME280;23698;52.014;5.190;2022-07-23T03:01:04;101866.72;;;13.98;100.00
37860;BME280;23698;52.014;5.190;2022-07-23T03:04:09;101869.16;;;13.78;100.00
37860;BME280;23698;52.014;5.190;2022-07-23T03:07:14;101872.63;;;13.87;100.00
37860;BME280;23698;52.014;5.190;2022-07-23T03:10:20;101881.19;;;13.84;100.00
37860;BME280;23698;52.014;5.190;2022-07-23T03:13:26;101870.00;;;13.79;100.00
37860;BME280;23698;52.014;5.190;2022-07-23T03:16:34;101875.09;;;13.82;100.00
37860;BME280;23698;52.014;5.190;2022-07-23T03:19:39;101879.97;;;13.72;100.00
37860;BME280;23698;52.014;5.190;2022-07-23T03:22:45;101878.81;;;13.66;100.00
37860;BME280;23698;52.014;5.190;2022-07-23T03:25:52;101888.72;;;13.67;100.00
37860;BME280;23698;52.014;5.190;2022-07-23T03:29:00;101900.84;;;13.65;100.00
37860;BME280;23698;52.014;5.190;2022-07-23T03:32:08;101904.13;;;13.60;100.00
37860;BME280;23698;52.014;5.190;2022-07-23T03:35:14;101902.59;;;13.57;100.00
37860;BME280;23698;52.014;5.190;2022-07-23T03:38:28;101901.75;;;13.57;100.00
37860;BME280;23698;52.014;5.190;2022-07-23T03:41:33;101897.25;;;13.49;100.00
37860;BME280;23698;52.014;5.190;2022-07-23T03:44:39;101890.28;;;13.47;100.00
37860;BME280;23698;52.014;5.190;2022-07-23T03:47:45;101884.28;;;13.51;100.00
37860;BME280;23698;52.014;5.190;2022-07-23T03:50:51;101886.53;;;13.48;100.00
37860;BME280;23698;52.014;5.190;2022-07-23T03:53:56;101876.47;;;13.48;100.00
37860;BME280;23698;52.014;5.190;2022-07-23T03:57:01;101872.81;;;13.41;100.00
37860;BME280;23698;52.014;5.190;2022-07-23T04:00:11;101881.00;;;13.56;100.00
37860;BME280;23698;52.014;5.190;2022-07-23T04:03:19;101876.00;;;13.45;100.00
37860;BME280;23698;52.014;5.190;2022-07-23T04:06:25;101870.91;;;13.41;100.00
37860;BME280;23698;52.014;5.190;2022-07-23T04:09:31;101876.94;;;13.37;100.00
37860;BME280;23698;52.014;5.190;2022-07-23T04:12:37;101877.59;;;13.39;100.00
37860;BME280;23698;52.014;5.190;2022-07-23T04:15:43;101877.78;;;13.37;100.00
37860;BME280;23698;52.014;5.190;2022-07-23T04:18:49;101873.75;;;13.48;100.00
37860;BME280;23698;52.014;5.190;2022-07-23T04:21:58;101877.88;;;13.44;100.00
37860;BME280;23698;52.014;5.190;2022-07-23T04:25:04;101874.69;;;13.55;100.00
37860;BME280;23698;52.014;5.190;2022-07-23T04:28:09;101882.50;;;13.58;100.00
37860;BME280;23698;52.014;5.190;2022-07-23T04:31:17;101882.50;;;13.58;100.00
37860;BME280;23698;52.014;5.190;2022-07-23T04:34:22;101880.53;;;13.67;100.00
37860;BME280;23698;52.014;5.190;2022-07-23T04:37:30;101884.97;;;13.68;100.00
37860;BME280;23698;52.014;5.190;2022-07-23T04:40:36;101889.00;;;13.72;100.00
37860;BME280;23698;52.014;5.190;2022-07-23T04:43:41;101885.72;;;13.77;100.00
37860;BME280;23698;52.014;5.190;2022-07-23T04:46:47;101888.25;;;13.93;100.00
37860;BME280;23698;52.014;5.190;2022-07-23T04:49:54;101893.59;;;14.02;100.00
37860;BME280;23698;52.014;5.190;2022-07-23T04:52:59;101896.38;;;14.08;100.00
37860;BME280;23698;52.014;5.190;2022-07-23T04:56:05;101897.53;;;14.14;100.00
37860;BME280;23698;52.014;5.190;2022-07-23T04:59:11;101905.88;;;14.27;100.00
37860;BME280;23698;52.014;5.190;2022-07-23T05:02:19;101889.84;;;14.54;100.00
37860;BME280;23698;52.014;5.190;2022-07-23T05:05:24;101901.72;;;14.61;100.00
37860;BME280;23698;52.014;5.190;2022-07-23T05:08:33;101897.97;;;14.84;100.00
37860;BME280;23698;52.014;5.190;2022-07-23T05:11:38;101897.03;;;14.98;100.00
37860;BME280;23698;52.014;5.190;2022-07-23T05:14:43;101897.66;;;15.22;100.00
37860;BME280;23698;52.014;5.190;2022-07-23T05:17:50;101907.16;;;15.26;100.00
37860;BME280;23698;52.014;5.190;2022-07-23T05:20:55;101898.22;;;15.39;100.00
37860;BME280;23698;52.014;5.190;2022-07-23T05:24:01;101899.22;;;15.59;100.00
37860;BME280;23698;52.014;5.190;2022-07-23T05:27:06;101910.22;;;15.66;100.00
37860;BME280;23698;52.014;5.190;2022-07-23T05:30:12;101912.50;;;15.91;100.00
37860;BME280;23698;52.014;5.190;2022-07-23T05:33:21;101903.97;;;16.07;100.00
37860;BME280;23698;52.014;5.190;2022-07-23T05:36:27;101912.16;;;16.07;100.00
37860;BME280;23698;52.014;5.190;2022-07-23T05:39:34;101912.94;;;16.36;100.00
37860;BME280;23698;52.014;5.190;2022-07-23T05:42:39;101924.97;;;16.41;100.00
37860;BME280;23698;52.014;5.190;2022-07-23T05:45:45;101919.34;;;16.63;100.00
37860;BME280;23698;52.014;5.190;2022-07-23T05:48:53;101926.97;;;16.74;100.00
37860;BME280;23698;52.014;5.190;2022-07-23T05:52:23;101922.41;;;17.02;100.00
37860;BME280;23698;52.014;5.190;2022-07-23T05:55:47;101929.81;;;17.21;100.00
37860;BME280;23698;52.014;5.190;2022-07-23T05:58:53;101930.22;;;17.38;100.00
37860;BME280;23698;52.014;5.190;2022-07-23T06:01:58;101928.34;;;17.39;100.00
37860;BME280;23698;52.014;5.190;2022-07-23T06:05:06;101919.28;;;17.58;100.00
37860;BME280;23698;52.014;5.190;2022-07-23T06:08:12;101913.31;;;17.81;100.00
37860;BME280;23698;52.014;5.190;2022-07-23T06:11:17;101909.97;;;17.86;100.00
37860;BME280;23698;52.014;5.190;2022-07-23T06:14:22;101913.31;;;18.01;100.00
37860;BME280;23698;52.014;5.190;2022-07-23T06:17:31;101919.47;;;17.90;100.00
37860;BME280;23698;52.014;5.190;2022-07-23T06:20:38;101910.09;;;18.18;100.00
37860;BME280;23698;52.014;5.190;2022-07-23T06:23:43;101915.50;;;18.31;100.00
37860;BME280;23698;52.014;5.190;2022-07-23T06:26:48;101915.06;;;18.41;100.00
37860;BME280;23698;52.014;5.190;2022-07-23T06:29:53;101919.91;;;18.45;100.00
37860;BME280;23698;52.014;5.190;2022-07-23T06:32:59;101922.53;;;18.65;100.00
37860;BME280;23698;52.014;5.190;2022-07-23T06:36:07;101917.03;;;18.72;100.00
37860;BME280;23698;52.014;5.190;2022-07-23T06:39:13;101911.56;;;19.04;100.00
37860;BME280;23698;52.014;5.190;2022-07-23T06:42:22;101914.44;;;19.16;100.00
37860;BME280;23698;52.014;5.190;2022-07-23T06:45:34;101914.22;;;19.17;100.00
37860;BME280;23698;52.014;5.190;2022-07-23T06:48:39;101923.81;;;19.33;100.00
37860;BME280;23698;52.014;5.190;2022-07-23T06:51:46;101917.41;;;19.39;100.00
37860;BME280;23698;52.014;5.190;2022-07-23T06:54:52;101923.00;;;19.51;100.00
37860;BME280;23698;52.014;5.190;2022-07-23T06:57:57;101928.94;;;19.80;100.00
37860;BME280;23698;52.014;5.190;2022-07-23T07:01:02;101925.44;;;20.10;100.00
37860;BME280;23698;52.014;5.190;2022-07-23T07:04:08;101928.94;;;20.17;100.00
37860;BME280;23698;52.014;5.190;2022-07-23T07:07:14;101926.19;;;19.80;100.00
37860;BME280;23698;52.014;5.190;2022-07-23T07:10:20;101924.19;;;20.06;100.00
37860;BME280;23698;52.014;5.190;2022-07-23T07:13:26;101930.22;;;20.33;100.00
37860;BME280;23698;52.014;5.190;2022-07-23T07:16:31;101937.94;;;19.87;100.00
37860;BME280;23698;52.014;5.190;2022-07-23T07:19:36;101938.47;;;20.14;100.00
37860;BME280;23698;52.014;5.190;2022-07-23T07:22:42;101939.34;;;20.15;100.00
37860;BME280;23698;52.014;5.190;2022-07-23T07:25:47;101938.25;;;20.34;100.00
37860;BME280;23698;52.014;5.190;2022-07-23T07:28:53;101943.06;;;20.58;100.00
37860;BME280;23698;52.014;5.190;2022-07-23T07:31:58;101939.41;;;20.64;100.00
37860;BME280;23698;52.014;5.190;2022-07-23T07:35:03;101943.50;;;20.73;100.00
37860;BME280;23698;52.014;5.190;2022-07-23T07:38:10;101945.09;;;21.23;100.00
37860;BME280;23698;52.014;5.190;2022-07-23T07:41:16;101937.69;;;21.23;100.00
37860;BME280;23698;52.014;5.190;2022-07-23T07:44:21;101938.91;;;21.39;100.00
37860;BME280;23698;52.014;5.190;2022-07-23T07:47:27;101940.31;;;21.18;100.00
37860;BME280;23698;52.014;5.190;2022-07-23T07:50:31;101941.19;;;21.42;100.00
37860;BME280;23698;52.014;5.190;2022-07-23T07:53:38;101952.75;;;21.63;100.00
37860;BME280;23698;52.014;5.190;2022-07-23T07:56:44;101951.78;;;21.57;100.00
37860;BME280;23698;52.014;5.190;2022-07-23T07:59:49;101953.16;;;21.36;100.00
37860;BME280;23698;52.014;5.190;2022-07-23T08:02:59;101961.50;;;21.18;100.00
37860;BME280;23698;52.014;5.190;2022-07-23T08:06:06;101959.69;;;21.54;100.00
37860;BME280;23698;52.014;5.190;2022-07-23T08:09:13;101955.38;;;21.69;100.00
37860;BME280;23698;52.014;5.190;2022-07-23T08:12:18;101952.72;;;22.10;100.00
37860;BME280;23698;52.014;5.190;2022-07-23T08:15:24;101958.28;;;21.86;100.00
37860;BME280;23698;52.014;5.190;2022-07-23T08:18:30;101960.53;;;22.13;100.00
37860;BME280;23698;52.014;5.190;2022-07-23T08:21:35;101966.47;;;21.27;100.00
37860;BME280;23698;52.014;5.190;2022-07-23T08:24:42;101964.88;;;22.09;100.00
37860;BME280;23698;52.014;5.190;2022-07-23T08:27:46;101971.22;;;22.10;100.00
37860;BME280;23698;52.014;5.190;2022-07-23T08:30:52;101956.66;;;22.38;100.00
37860;BME280;23698;52.014;5.190;2022-07-23T08:33:57;101962.91;;;22.74;100.00
37860;BME280;23698;52.014;5.190;2022-07-23T08:37:03;101967.72;;;22.38;100.00
37860;BME280;23698;52.014;5.190;2022-07-23T08:40:10;101964.50;;;22.29;100.00
37860;BME280;23698;52.014;5.190;2022-07-23T08:43:20;101961.22;;;22.20;100.00
37860;BME280;23698;52.014;5.190;2022-07-23T08:46:26;101962.28;;;22.43;100.00
37860;BME280;23698;52.014;5.190;2022-07-23T08:49:32;101963.59;;;22.52;100.00
37860;BME280;23698;52.014;5.190;2022-07-23T08:52:38;101962.94;;;22.91;100.00
37860;BME280;23698;52.014;5.190;2022-07-23T08:55:46;101972.44;;;23.07;100.00
37860;BME280;23698;52.014;5.190;2022-07-23T08:58:53;101969.00;;;23.05;100.00
37860;BME280;23698;52.014;5.190;2022-07-23T09:01:58;101968.31;;;23.09;100.00
37860;BME280;23698;52.014;5.190;2022-07-23T09:05:05;101953.34;;;22.93;100.00
37860;BME280;23698;52.014;5.190;2022-07-23T09:08:12;101949.84;;;22.98;100.00
37860;BME280;23698;52.014;5.190;2022-07-23T09:11:19;101963.09;;;23.42;100.00
37860;BME280;23698;52.014;5.190;2022-07-23T09:14:36;101964.22;;;23.29;100.00
37860;BME280;23698;52.014;5.190;2022-07-23T09:17:42;101967.44;;;23.71;100.00
37860;BME280;23698;52.014;5.190;2022-07-23T09:20:47;101961.94;;;23.09;100.00
37860;BME280;23698;52.014;5.190;2022-07-23T09:23:57;101963.81;;;22.91;100.00
37860;BME280;23698;52.014;5.190;2022-07-23T09:27:04;101957.19;;;22.92;100.00
37860;BME280;23698;52.014;5.190;2022-07-23T09:30:10;101964.22;;;23.29;100.00
37860;BME280;23698;52.014;5.190;2022-07-23T09:33:15;101965.75;;;23.70;100.00
37860;BME280;23698;52.014;5.190;2022-07-23T09:36:28;101970.88;;;24.18;100.00
37860;BME280;23698;52.014;5.190;2022-07-23T09:39:34;101967.72;;;24.09;100.00
37860;BME280;23698;52.014;5.190;2022-07-23T09:42:54;101961.97;;;24.55;100.00
37860;BME280;23698;52.014;5.190;2022-07-23T09:46:20;101972.22;;;24.76;100.00
37860;BME280;23698;52.014;5.190;2022-07-23T09:49:27;101980.31;;;24.39;100.00
37860;BME280;23698;52.014;5.190;2022-07-23T09:52:34;101983.19;;;24.05;100.00
37860;BME280;23698;52.014;5.190;2022-07-23T09:55:40;101979.34;;;24.50;100.00
37860;BME280;23698;52.014;5.190;2022-07-23T09:58:49;101971.53;;;24.25;100.00
37860;BME280;23698;52.014;5.190;2022-07-23T10:01:56;101974.13;;;24.31;100.00
37860;BME280;23698;52.014;5.190;2022-07-23T10:05:04;101970.97;;;25.16;100.00
37860;BME280;23698;52.014;5.190;2022-07-23T10:08:30;101968.44;;;24.87;100.00
37860;BME280;23698;52.014;5.190;2022-07-23T10:12:04;101964.03;;;24.92;100.00
37860;BME280;23698;52.014;5.190;2022-07-23T10:15:30;101968.19;;;25.16;100.00
37860;BME280;23698;52.014;5.190;2022-07-23T10:18:35;101961.25;;;25.19;100.00
37860;BME280;23698;52.014;5.190;2022-07-23T10:21:48;101961.47;;;25.12;100.00
37860;BME280;23698;52.014;5.190;2022-07-23T10:24:59;101963.06;;;25.03;100.00
37860;BME280;23698;52.014;5.190;2022-07-23T10:28:26;101957.69;;;24.47;100.00
37860;BME280;23698;52.014;5.190;2022-07-23T10:31:41;101961.19;;;24.81;100.00
37860;BME280;23698;52.014;5.190;2022-07-23T10:35:10;101965.09;;;25.40;100.00
37860;BME280;23698;52.014;5.190;2022-07-23T10:38:21;101961.31;;;25.56;100.00
37860;BME280;23698;52.014;5.190;2022-07-23T10:41:33;101952.63;;;25.42;100.00
37860;BME280;23698;52.014;5.190;2022-07-23T10:44:40;101966.09;;;25.29;100.00
37860;BME280;23698;52.014;5.190;2022-07-23T10:47:48;101952.03;;;25.40;100.00
37860;BME280;23698;52.014;5.190;2022-07-23T10:51:09;101956.13;;;25.33;100.00
37860;BME280;23698;52.014;5.190;2022-07-23T10:54:20;101951.97;;;25.68;100.00
37860;BME280;23698;52.014;5.190;2022-07-23T10:57:27;101946.97;;;26.07;100.00
37860;BME280;23698;52.014;5.190;2022-07-23T11:00:33;101951.97;;;26.10;100.00
37860;BME280;23698;52.014;5.190;2022-07-23T11:03:40;101951.50;;;25.43;100.00
37860;BME280;23698;52.014;5.190;2022-07-23T11:07:08;101953.56;;;25.58;100.00
37860;BME280;23698;52.014;5.190;2022-07-23T11:10:33;101950.59;;;25.70;100.00
37860;BME280;23698;52.014;5.190;2022-07-23T11:13:45;101947.25;;;26.06;100.00
37860;BME280;23698;52.014;5.190;2022-07-23T11:16:54;101948.78;;;25.86;100.00
37860;BME280;23698;52.014;5.190;2022-07-23T11:20:16;101951.53;;;26.29;100.00
37860;BME280;23698;52.014;5.190;2022-07-23T11:23:22;101953.72;;;26.27;100.00
37860;BME280;23698;52.014;5.190;2022-07-23T11:26:42;101954.59;;;26.32;100.00
37860;BME280;23698;52.014;5.190;2022-07-23T11:29:49;101951.69;;;26.12;100.00
37860;BME280;23698;52.014;5.190;2022-07-23T11:33:16;101940.84;;;26.63;100.00
37860;BME280;23698;52.014;5.190;2022-07-23T11:36:23;101942.81;;;26.83;100.00
37860;BME280;23698;52.014;5.190;2022-07-23T11:39:29;101944.22;;;27.01;100.00
37860;BME280;23698;52.014;5.190;2022-07-23T11:42:37;101944.50;;;27.05;100.00
37860;BME280;23698;52.014;5.190;2022-07-23T11:45:44;101952.84;;;26.89;100.00
37860;BME280;23698;52.014;5.190;2022-07-23T11:49:01;101944.09;;;26.55;100.00
37860;BME280;23698;52.014;5.190;2022-07-23T11:52:09;101950.50;;;26.61;100.00
37860;BME280;23698;52.014;5.190;2022-07-23T11:55:16;101947.13;;;26.48;100.00
37860;BME280;23698;52.014;5.190;2022-07-23T11:58:21;101947.56;;;26.88;100.00
37860;BME280;23698;52.014;5.190;2022-07-23T12:01:27;101949.50;;;26.87;100.00
37860;BME280;23698;52.014;5.190;2022-07-23T12:04:39;101936.97;;;26.85;100.00
37860;BME280;23698;52.014;5.190;2022-07-23T12:07:46;101941.47;;;27.22;100.00
37860;BME280;23698;52.014;5.190;2022-07-23T12:10:53;101938.72;;;27.58;100.00
37860;BME280;23698;52.014;5.190;2022-07-23T12:13:58;101934.72;;;26.71;100.00
37860;BME280;23698;52.014;5.190;2022-07-23T12:17:07;101929.53;;;27.47;100.00
37860;BME280;23698;52.014;5.190;2022-07-23T12:20:14;101928.63;;;26.74;100.00
37860;BME280;23698;52.014;5.190;2022-07-23T12:23:22;101929.59;;;25.85;100.00
37860;BME280;23698;52.014;5.190;2022-07-23T12:26:28;101921.97;;;26.86;100.00
37860;BME280;23698;52.014;5.190;2022-07-23T12:29:34;101916.97;;;27.19;100.00
37860;BME280;23698;52.014;5.190;2022-07-23T12:32:43;101918.88;;;26.87;100.00
37860;BME280;23698;52.014;5.190;2022-07-23T12:35:49;101916.41;;;26.96;100.00
37860;BME280;23698;52.014;5.190;2022-07-23T12:38:56;101918.91;;;27.08;100.00
37860;BME280;23698;52.014;5.190;2022-07-23T12:42:01;101909.72;;;27.69;100.00
37860;BME280;23698;52.014;5.190;2022-07-23T12:45:09;101919.50;;;27.51;100.00
37860;BME280;23698;52.014;5.190;2022-07-23T12:48:17;101914.97;;;27.81;100.00
37860;BME280;23698;52.014;5.190;2022-07-23T12:51:25;101912.50;;;27.69;100.00
37860;BME280;23698;52.014;5.190;2022-07-23T12:54:33;101913.84;;;27.97;100.00
37860;BME280;23698;52.014;5.190;2022-07-23T12:57:44;101915.84;;;27.09;100.00
37860;BME280;23698;52.014;5.190;2022-07-23T13:00:55;101919.44;;;26.74;100.00
37860;BME280;23698;52.014;5.190;2022-07-23T13:04:03;101907.25;;;27.21;100.00
37860;BME280;23698;52.014;5.190;2022-07-23T13:07:16;101911.97;;;27.00;100.00
37860;BME280;23698;52.014;5.190;2022-07-23T13:10:22;101912.84;;;27.37;100.00
37860;BME280;23698;52.014;5.190;2022-07-23T13:13:29;101912.53;;;27.07;100.00
37860;BME280;23698;52.014;5.190;2022-07-23T13:16:35;101906.66;;;27.65;100.00
37860;BME280;23698;52.014;5.190;2022-07-23T13:19:41;101906.13;;;28.44;91.85
37860;BME280;23698;52.014;5.190;2022-07-23T13:22:46;101902.25;;;29.53;81.03
37860;BME280;23698;52.014;5.190;2022-07-23T13:25:53;101901.31;;;29.63;78.61
37860;BME280;23698;52.014;5.190;2022-07-23T13:29:00;101903.63;;;28.37;87.43
37860;BME280;23698;52.014;5.190;2022-07-23T13:32:05;101906.44;;;28.87;87.85
37860;BME280;23698;52.014;5.190;2022-07-23T13:35:16;101904.34;;;29.43;84.64
37860;BME280;23698;52.014;5.190;2022-07-23T13:38:23;101908.81;;;29.97;76.66
37860;BME280;23698;52.014;5.190;2022-07-23T13:41:29;101908.38;;;29.55;77.73
37860;BME280;23698;52.014;5.190;2022-07-23T13:44:35;101888.00;;;29.26;81.97
37860;BME280;23698;52.014;5.190;2022-07-23T13:47:40;101889.59;;;28.03;91.81
37860;BME280;23698;52.014;5.190;2022-07-23T13:50:49;101898.34;;;27.40;95.47
37860;BME280;23698;52.014;5.190;2022-07-23T13:53:54;101890.25;;;27.54;94.26
37860;BME280;23698;52.014;5.190;2022-07-23T13:57:04;101887.63;;;28.03;89.49
37860;BME280;23698;52.014;5.190;2022-07-23T14:00:10;101891.59;;;27.77;89.61
37860;BME280;23698;52.014;5.190;2022-07-23T14:03:36;101898.88;;;27.26;95.92
37860;BME280;23698;52.014;5.190;2022-07-23T14:06:41;101903.03;;;27.70;96.41
37860;BME280;23698;52.014;5.190;2022-07-23T14:09:50;101899.69;;;26.75;99.28
37860;BME280;23698;52.014;5.190;2022-07-23T14:12:57;101893.94;;;28.30;88.67
37860;BME280;23698;52.014;5.190;2022-07-23T14:16:04;101893.53;;;28.96;87.04
37860;BME280;23698;52.014;5.190;2022-07-23T14:19:09;101899.28;;;28.71;84.02
37860;BME280;23698;52.014;5.190;2022-07-23T14:22:14;101899.09;;;28.96;85.98
37860;BME280;23698;52.014;5.190;2022-07-23T14:25:20;101894.91;;;28.59;88.77
37860;BME280;23698;52.014;5.190;2022-07-23T14:28:26;101900.94;;;29.11;85.70
37860;BME280;23698;52.014;5.190;2022-07-23T14:31:32;101894.84;;;29.68;78.35
37860;BME280;23698;52.014;5.190;2022-07-23T14:34:37;101896.63;;;30.07;79.74
37860;BME280;23698;52.014;5.190;2022-07-23T14:37:43;101891.44;;;30.43;77.26
37860;BME280;23698;52.014;5.190;2022-07-23T14:40:49;101899.22;;;30.03;76.46
37860;BME280;23698;52.014;5.190;2022-07-23T14:43:56;101895.75;;;30.55;75.24
37860;BME280;23698;52.014;5.190;2022-07-23T14:47:03;101888.88;;;30.23;71.91
37860;BME280;23698;52.014;5.190;2022-07-23T14:50:09;101886.84;;;30.09;75.07
37860;BME280;23698;52.014;5.190;2022-07-23T14:53:15;101896.28;;;30.76;70.69
37860;BME280;23698;52.014;5.190;2022-07-23T14:56:25;101892.38;;;30.15;76.25
37860;BME280;23698;52.014;5.190;2022-07-23T14:59:32;101895.53;;;29.84;75.18
37860;BME280;23698;52.014;5.190;2022-07-23T15:02:40;101888.56;;;30.48;74.31
37860;BME280;23698;52.014;5.190;2022-07-23T15:05:46;101886.88;;;30.85;73.53
37860;BME280;23698;52.014;5.190;2022-07-23T15:08:52;101895.09;;;30.20;77.55
37860;BME280;23698;52.014;5.190;2022-07-23T15:11:57;101886.44;;;30.78;78.22
37860;BME280;23698;52.014;5.190;2022-07-23T15:15:05;101889.72;;;29.75;78.43
37860;BME280;23698;52.014;5.190;2022-07-23T15:18:13;101889.00;;;29.64;78.07
37860;BME280;23698;52.014;5.190;2022-07-23T15:21:21;101880.22;;;30.00;78.74
37860;BME280;23698;52.014;5.190;2022-07-23T15:24:27;101891.56;;;29.90;74.26
37860;BME280;23698;52.014;5.190;2022-07-23T15:27:33;101877.56;;;29.02;82.23
37860;BME280;23698;52.014;5.190;2022-07-23T15:30:39;101882.06;;;28.98;84.90
37860;BME280;23698;52.014;5.190;2022-07-23T15:33:45;101865.84;;;29.00;80.99
37860;BME280;23698;52.014;5.190;2022-07-23T15:36:50;101864.69;;;28.72;86.76
37860;BME280;23698;52.014;5.190;2022-07-23T15:39:55;101865.88;;;28.05;89.85
37860;BME280;23698;52.014;5.190;2022-07-23T15:43:00;101871.81;;;28.88;89.55
37860;BME280;23698;52.014;5.190;2022-07-23T15:46:07;101872.41;;;28.85;91.05
37860;BME280;23698;52.014;5.190;2022-07-23T15:49:13;101870.13;;;27.77;94.21
37860;BME280;23698;52.014;5.190;2022-07-23T15:52:22;101874.06;;;27.66;100.00
37860;BME280;23698;52.014;5.190;2022-07-23T15:55:27;101871.34;;;27.15;100.00
37860;BME280;23698;52.014;5.190;2022-07-23T15:58:33;101866.03;;;27.13;100.00
37860;BME280;23698;52.014;5.190;2022-07-23T16:01:41;101866.16;;;28.09;100.00
37860;BME280;23698;52.014;5.190;2022-07-23T16:04:47;101865.34;;;28.48;92.39
37860;BME280;23698;52.014;5.190;2022-07-23T16:07:53;101864.19;;;29.33;88.77